sensor_id;sensor_type;location;lat;lon;timestamp;pressure;altitude;pressure_sealevel;temperature;humidity
14612;BME280;7392;52.078;11.650;2023-02-02T00:01:19;100446.44;;;2.99;100.00
14612;BME280;7392;52.078;11.650;2023-02-02T00:03:47;100457.00;;;3.03;100.00
14612;BME280;7392;52.078;11.650;2023-02-02T00:06:17;100464.00;;;3.04;100.00
14612;BME280;7392;52.078;11.650;2023-02-02T00:08:46;100464.88;;;3.03;100.00
14612;BME280;7392;52.078;11.650;2023-02-02T00:11:14;100455.28;;;3.05;100.00
14612;BME280;7392;52.078;11.650;2023-02-02T00:13:42;100450.00;;;3.03;100.00
14612;BME280;7392;52.078;11.650;2023-02-02T00:16:36;100456.97;;;3.01;100.00
14612;BME280;7392;52.078;11.650;2023-02-02T00:19:06;100458.75;;;3.04;100.00
14612;BME280;7392;52.078;11.650;2023-02-02T00:21:35;100463.09;;;3.02;100.00
14612;BME280;7392;52.078;11.650;2023-02-02T00:24:05;100464.91;;;3.04;100.00
14612;BME280;7392;52.078;11.650;2023-02-02T00:26:33;100452.66;;;3.05;100.00
14612;BME280;7392;52.078;11.650;2023-02-02T00:29:04;100439.59;;;3.06;100.00
14612;BME280;7392;52.078;11.650;2023-02-02T00:31:32;100442.19;;;3.05;100.00
14612;BME280;7392;52.078;11.650;2023-02-02T00:34:00;100449.13;;;3.03;100.00
14612;BME280;7392;52.078;11.650;2023-02-02T00:36:27;100449.16;;;3.04;100.00
14612;BME280;7392;52.078;11.650;2023-02-02T00:38:56;100451.78;;;3.04;100.00
14612;BME280;7392;52.078;11.650;2023-02-02T00:41:24;100436.06;;;3.04;100.00
14612;BME280;7392;52.078;11.650;2023-02-02T00:43:52;100443.06;;;3.05;100.00
14612;BME280;7392;52.078;11.650;2023-02-02T00:46:34;100431.59;;;3.02;100.00
14612;BME280;7392;52.078;11.650;2023-02-02T00:49:05;100436.97;;;3.06;100.00
14612;BME280;7392;52.078;11.650;2023-02-02T00:51:34;100448.22;;;3.02;100.00
14612;BME280;7392;52.078;11.650;2023-02-02T00:54:04;100461.31;;;3.00;100.00
14612;BME280;7392;52.078;11.650;2023-02-02T00:56:32;100464.84;;;3.01;100.00
14612;BME280;7392;52.078;11.650;2023-02-02T00:59:00;100458.66;;;2.99;100.00
14612;BME280;7392;52.078;11.650;2023-02-02T01:01:27;100462.16;;;2.99;100.00
14612;BME280;7392;52.078;11.650;2023-02-02T01:03:55;100469.91;;;2.95;100.00
14612;BME280;7392;52.078;11.650;2023-02-02T01:06:24;100488.25;;;2.93;100.00
14612;BME280;7392;52.078;11.650;2023-02-02T01:08:52;100486.53;;;2.94;100.00
14612;BME280;7392;52.078;11.650;2023-02-02T01:11:21;100490.88;;;2.93;100.00
14612;BME280;7392;52.078;11.650;2023-02-02T01:13:49;100501.50;;;2.98;100.00
14612;BME280;7392;52.078;11.650;2023-02-02T01:16:16;100484.97;;;3.02;100.00
14612;BME280;7392;52.078;11.650;2023-02-02T01:18:44;100492.81;;;3.02;100.00
14612;BME280;7392;52.078;11.650;2023-02-02T01:21:12;100486.78;;;3.05;100.00
14612;BME280;7392;52.078;11.650;2023-02-02T01:23:40;100479.75;;;3.04;100.00
14612;BME280;7392;52.078;11.650;2023-02-02T01:26:09;100480.66;;;3.04;100.00
14612;BME280;7392;52.078;11.650;2023-02-02T01:28:39;100471.03;;;3.05;100.00
14612;BME280;7392;52.078;11.650;2023-02-02T01:31:08;100479.00;;;3.08;100.00
14612;BME280;7392;52.078;11.650;2023-02-02T01:33:36;100493.91;;;3.10;100.00
14612;BME280;7392;52.078;11.650;2023-02-02T01:36:07;100480.03;;;3.16;100.00
14612;BME280;7392;52.078;11.650;2023-02-02T01:38:35;100485.31;;;3.17;100.00
14612;BME280;7392;52.078;11.650;2023-02-02T01:41:03;100484.53;;;3.20;100.00
14612;BME280;7392;52.078;11.650;2023-02-02T01:43:51;100487.16;;;3.20;100.00
14612;BME280;7392;52.078;11.650;2023-02-02T01:46:22;100495.06;;;3.22;100.00
14612;BME280;7392;52.078;11.650;2023-02-02T01:48:52;100509.16;;;3.25;100.00
14612;BME280;7392;52.078;11.650;2023-02-02T01:51:24;100506.56;;;3.27;100.00
14612;BME280;7392;52.078;11.650;2023-02-02T01:53:57;100502.25;;;3.30;100.00
14612;BME280;7392;52.078;11.650;2023-02-02T01:56:27;100504.00;;;3.30;100.00
14612;BME280;7392;52.078;11.650;2023-02-02T01:58:58;100516.28;;;3.31;100.00
14612;BME280;7392;52.078;11.650;2023-02-02T02:01:27;100510.25;;;3.35;100.00
14612;BME280;7392;52.078;11.650;2023-02-02T02:03:55;100512.88;;;3.35;100.00
14612;BME280;7392;52.078;11.650;2023-02-02T02:06:25;100502.44;;;3.36;100.00
14612;BME280;7392;52.078;11.650;2023-02-02T02:08:55;100509.50;;;3.41;100.00
14612;BME280;7392;52.078;11.650;2023-02-02T02:11:26;100513.91;;;3.42;100.00
14612;BME280;7392;52.078;11.650;2023-02-02T02:13:55;100510.38;;;3.41;100.00
14612;BME280;7392;52.078;11.650;2023-02-02T02:16:51;100510.38;;;3.41;100.00
14612;BME280;7392;52.078;11.650;2023-02-02T02:19:46;100518.34;;;3.44;100.00
14612;BME280;7392;52.078;11.650;2023-02-02T02:22:59;100521.91;;;3.48;100.00
14612;BME280;7392;52.078;11.650;2023-02-02T02:26:05;100517.50;;;3.45;100.00
14612;BME280;7392;52.078;11.650;2023-02-02T02:32:04;100553.34;;;3.45;100.00
14612;BME280;7392;52.078;11.650;2023-02-02T02:34:46;100544.69;;;3.47;100.00
14612;BME280;7392;52.078;11.650;2023-02-02T02:37:28;100541.97;;;3.44;100.00
14612;BME280;7392;52.078;11.650;2023-02-02T02:40:02;100560.34;;;3.44;100.00
14612;BME280;7392;52.078;11.650;2023-02-02T02:42:35;100562.13;;;3.45;100.00
14612;BME280;7392;52.078;11.650;2023-02-02T02:45:07;100566.53;;;3.46;100.00
14612;BME280;7392;52.078;11.650;2023-02-02T02:47:38;100551.84;;;3.54;100.00
14612;BME280;7392;52.078;11.650;2023-02-02T02:50:07;100570.22;;;3.54;100.00
14612;BME280;7392;52.078;11.650;2023-02-02T02:52:36;100575.44;;;3.53;100.00
14612;BME280;7392;52.078;11.650;2023-02-02T02:55:06;100570.16;;;3.51;100.00
14612;BME280;7392;52.078;11.650;2023-02-02T02:57:45;100570.19;;;3.53;100.00
14612;BME280;7392;52.078;11.650;2023-02-02T03:00:34;100575.41;;;3.51;100.00
14612;BME280;7392;52.078;11.650;2023-02-02T03:03:13;100570.22;;;3.54;100.00
14612;BME280;7392;52.078;11.650;2023-02-02T03:05:50;100584.22;;;3.55;100.00
14612;BME280;7392;52.078;11.650;2023-02-02T03:08:25;100600.00;;;3.55;100.00
14612;BME280;7392;52.078;11.650;2023-02-02T03:10:54;100578.16;;;3.56;100.00
14612;BME280;7392;52.078;11.650;2023-02-02T03:13:23;100589.56;;;3.58;100.00
14612;BME280;7392;52.078;11.650;2023-02-02T03:15:52;100595.72;;;3.60;100.00
14612;BME280;7392;52.078;11.650;2023-02-02T03:18:24;100585.28;;;3.62;99.71
14612;BME280;7392;52.078;11.650;2023-02-02T03:20:54;100591.41;;;3.61;100.00
14612;BME280;7392;52.078;11.650;2023-02-02T03:23:21;100603.66;;;3.62;100.00
14612;BME280;7392;52.078;11.650;2023-02-02T03:25:49;100596.69;;;3.64;99.42
14612;BME280;7392;52.078;11.650;2023-02-02T03:28:17;100595.84;;;3.65;99.50
14612;BME280;7392;52.078;11.650;2023-02-02T03:30:46;100601.16;;;3.66;99.44
14612;BME280;7392;52.078;11.650;2023-02-02T03:33:15;100613.38;;;3.64;99.28
14612;BME280;7392;52.078;11.650;2023-02-02T03:35:45;100601.09;;;3.65;99.58
14612;BME280;7392;52.078;11.650;2023-02-02T03:38:13;100617.75;;;3.65;99.73
14612;BME280;7392;52.078;11.650;2023-02-02T03:40:40;100622.25;;;3.69;99.24
14612;BME280;7392;52.078;11.650;2023-02-02T03:43:08;100630.03;;;3.66;99.56
14612;BME280;7392;52.078;11.650;2023-02-02T03:45:36;100616.00;;;3.64;99.34
14612;BME280;7392;52.078;11.650;2023-02-02T03:48:06;100623.84;;;3.63;99.60
14612;BME280;7392;52.078;11.650;2023-02-02T03:50:33;100617.66;;;3.61;99.99
14612;BME280;7392;52.078;11.650;2023-02-02T03:53:03;100630.78;;;3.61;100.00
14612;BME280;7392;52.078;11.650;2023-02-02T03:55:31;100650.09;;;3.63;100.00
14612;BME280;7392;52.078;11.650;2023-02-02T03:57:58;100637.00;;;3.64;99.54
14612;BME280;7392;52.078;11.650;2023-02-02T04:00:26;100639.63;;;3.64;99.59
14612;BME280;7392;52.078;11.650;2023-02-02T04:02:53;100650.13;;;3.64;99.87
14612;BME280;7392;52.078;11.650;2023-02-02T04:05:21;100651.03;;;3.65;100.00
14612;BME280;7392;52.078;11.650;2023-02-02T04:07:49;100651.84;;;3.64;99.98
14612;BME280;7392;52.078;11.650;2023-02-02T04:10:18;100654.47;;;3.62;100.00
14612;BME280;7392;52.078;11.650;2023-02-02T04:12:46;100656.19;;;3.62;100.00
14612;BME280;7392;52.078;11.650;2023-02-02T04:15:14;100661.41;;;3.60;100.00
14612;BME280;7392;52.078;11.650;2023-02-02T04:17:42;100655.22;;;3.58;100.00
14612;BME280;7392;52.078;11.650;2023-02-02T04:20:10;100670.91;;;3.55;100.00
14612;BME280;7392;52.078;11.650;2023-02-02T04:22:38;100679.63;;;3.52;100.00
14612;BME280;7392;52.078;11.650;2023-02-02T04:25:06;100676.91;;;3.49;100.00
14612;BME280;7392;52.078;11.650;2023-02-02T04:27:35;100669.94;;;3.51;100.00
14612;BME280;7392;52.078;11.650;2023-02-02T04:30:04;100690.06;;;3.51;100.00
14612;BME280;7392;52.078;11.650;2023-02-02T04:32:32;100670.72;;;3.47;100.00
14612;BME280;7392;52.078;11.650;2023-02-02T04:34:59;100677.72;;;3.47;100.00
14612;BME280;7392;52.078;11.650;2023-02-02T04:37:29;100678.47;;;3.43;100.00
14612;BME280;7392;52.078;11.650;2023-02-02T04:39:57;100695.94;;;3.41;100.00
14612;BME280;7392;52.078;11.650;2023-02-02T04:42:25;100692.34;;;3.37;100.00
14612;BME280;7392;52.078;11.650;2023-02-02T04:44:54;100699.31;;;3.35;100.00
14612;BME280;7392;52.078;11.650;2023-02-02T04:47:21;100700.13;;;3.34;100.00
14612;BME280;7392;52.078;11.650;2023-02-02T04:49:49;100719.41;;;3.34;100.00
14612;BME280;7392;52.078;11.650;2023-02-02T04:52:16;100708.91;;;3.34;100.00
14612;BME280;7392;52.078;11.650;2023-02-02T04:54:44;100702.81;;;3.35;100.00
14612;BME280;7392;52.078;11.650;2023-02-02T04:57:12;100715.06;;;3.35;100.00
14612;BME280;7392;52.078;11.650;2023-02-02T04:59:39;100717.69;;;3.35;100.00
14612;BME280;7392;52.078;11.650;2023-02-02T05:02:09;100725.66;;;3.40;100.00
14612;BME280;7392;52.078;11.650;2023-02-02T05:04:36;100718.66;;;3.39;100.00
14612;BME280;7392;52.078;11.650;2023-02-02T05:07:04;100725.66;;;3.40;100.00
14612;BME280;7392;52.078;11.650;2023-02-02T05:09:32;100734.44;;;3.40;100.00
14612;BME280;7392;52.078;11.650;2023-02-02T05:12:00;100737.91;;;3.39;100.00
14612;BME280;7392;52.078;11.650;2023-02-02T05:14:27;100738.88;;;3.43;100.00
14612;BME280;7392;52.078;11.650;2023-02-02T05:16:55;100746.75;;;3.43;100.00
14612;BME280;7392;52.078;11.650;2023-02-02T05:19:24;100747.63;;;3.43;100.00
14612;BME280;7392;52.078;11.650;2023-02-02T05:21:51;100759.09;;;3.45;100.00
14612;BME280;7392;52.078;11.650;2023-02-02T05:24:20;100747.69;;;3.45;100.00
14612;BME280;7392;52.078;11.650;2023-02-02T05:26:47;100752.09;;;3.46;100.00
14612;BME280;7392;52.078;11.650;2023-02-02T05:29:15;100761.72;;;3.45;100.00
14612;BME280;7392;52.078;11.650;2023-02-02T05:31:42;100758.19;;;3.45;100.00
14612;BME280;7392;52.078;11.650;2023-02-02T05:34:10;100758.19;;;3.45;100.00
14612;BME280;7392;52.078;11.650;2023-02-02T05:36:40;100759.06;;;3.44;100.00
14612;BME280;7392;52.078;11.650;2023-02-02T05:39:08;100755.50;;;3.43;100.00
14612;BME280;7392;52.078;11.650;2023-02-02T05:41:35;100761.69;;;3.44;100.00
14612;BME280;7392;52.078;11.650;2023-02-02T05:44:03;100770.38;;;3.43;100.00
14612;BME280;7392;52.078;11.650;2023-02-02T05:46:31;100763.38;;;3.43;100.00
14612;BME280;7392;52.078;11.650;2023-02-02T05:48:59;100780.81;;;3.40;100.00
14612;BME280;7392;52.078;11.650;2023-02-02T05:51:31;100776.47;;;3.40;100.00
14612;BME280;7392;52.078;11.650;2023-02-02T05:54:01;100785.13;;;3.37;100.00
14612;BME280;7392;52.078;11.650;2023-02-02T05:56:29;100795.53;;;3.34;100.00
14612;BME280;7392;52.078;11.650;2023-02-02T05:58:57;100799.00;;;3.32;100.00
14612;BME280;7392;52.078;11.650;2023-02-02T06:01:25;100806.78;;;3.29;100.00
14612;BME280;7392;52.078;11.650;2023-02-02T06:03:53;100812.81;;;3.26;100.00
14612;BME280;7392;52.078;11.650;2023-02-02T06:06:21;100803.13;;;3.24;100.00
14612;BME280;7392;52.078;11.650;2023-02-02T06:08:48;100818.81;;;3.22;100.00
14612;BME280;7392;52.078;11.650;2023-02-02T06:11:18;100799.44;;;3.17;100.00
14612;BME280;7392;52.078;11.650;2023-02-02T06:13:45;100809.84;;;3.14;100.00
14612;BME280;7392;52.078;11.650;2023-02-02T06:16:13;100812.38;;;3.11;100.00
14612;BME280;7392;52.078;11.650;2023-02-02T06:18:41;100822.75;;;3.06;100.00
14612;BME280;7392;52.078;11.650;2023-02-02T06:21:09;100826.22;;;3.05;100.00
14612;BME280;7392;52.078;11.650;2023-02-02T06:23:37;100819.16;;;3.03;100.00
14612;BME280;7392;52.078;11.650;2023-02-02T06:26:11;100834.84;;;3.01;100.00
14612;BME280;7392;52.078;11.650;2023-02-02T06:28:40;100834.81;;;2.99;100.00
14612;BME280;7392;52.078;11.650;2023-02-02T06:31:09;100839.13;;;2.97;100.00
14612;BME280;7392;52.078;11.650;2023-02-02T06:33:37;100847.88;;;2.98;100.00
14612;BME280;7392;52.078;11.650;2023-02-02T06:36:06;100842.56;;;2.96;100.00
14612;BME280;7392;52.078;11.650;2023-02-02T06:38:34;100850.34;;;2.93;100.00
14612;BME280;7392;52.078;11.650;2023-02-02T06:41:02;100852.97;;;2.93;100.00
14612;BME280;7392;52.078;11.650;2023-02-02T06:43:30;100859.13;;;2.94;100.00
14612;BME280;7392;52.078;11.650;2023-02-02T06:45:59;100856.53;;;2.95;100.00
14612;BME280;7392;52.078;11.650;2023-02-02T06:48:26;100852.19;;;2.96;100.00
14612;BME280;7392;52.078;11.650;2023-02-02T06:50:56;100867.13;;;2.98;100.00
14612;BME280;7392;52.078;11.650;2023-02-02T06:53:24;100861.91;;;3.00;100.00
14612;BME280;7392;52.078;11.650;2023-02-02T06:55:52;100873.31;;;3.00;100.00
14612;BME280;7392;52.078;11.650;2023-02-02T06:58:20;100871.63;;;3.03;100.00
14612;BME280;7392;52.078;11.650;2023-02-02T07:00:48;100868.16;;;3.04;100.00
14612;BME280;7392;52.078;11.650;2023-02-02T07:03:18;100870.03;;;3.08;100.00
14612;BME280;7392;52.078;11.650;2023-02-02T07:05:46;100879.72;;;3.10;100.00
14612;BME280;7392;52.078;11.650;2023-02-02T07:08:14;100884.16;;;3.11;100.00
14612;BME280;7392;52.078;11.650;2023-02-02T07:10:42;100878.03;;;3.12;100.00
14612;BME280;7392;52.078;11.650;2023-02-02T07:13:30;100889.50;;;3.14;100.00
14612;BME280;7392;52.078;11.650;2023-02-02T07:15:57;100887.75;;;3.15;100.00
14612;BME280;7392;52.078;11.650;2023-02-02T07:18:27;100886.00;;;3.15;100.00
14612;BME280;7392;52.078;11.650;2023-02-02T07:20:57;100896.59;;;3.18;100.00
14612;BME280;7392;52.078;11.650;2023-02-02T07:23:25;100888.72;;;3.18;100.00
14612;BME280;7392;52.078;11.650;2023-02-02T07:26:00;100886.09;;;3.18;100.00
14612;BME280;7392;52.078;11.650;2023-02-02T07:28:28;100898.41;;;3.20;100.00
14612;BME280;7392;52.078;11.650;2023-02-02T07:30:55;100896.66;;;3.20;100.00
14612;BME280;7392;52.078;11.650;2023-02-02T07:33:23;100908.03;;;3.21;100.00
14612;BME280;7392;52.078;11.650;2023-02-02T07:35:53;100914.16;;;3.21;100.00
14612;BME280;7392;52.078;11.650;2023-02-02T07:38:20;100915.91;;;3.21;100.00
14612;BME280;7392;52.078;11.650;2023-02-02T07:40:48;100912.47;;;3.22;100.00
14612;BME280;7392;52.078;11.650;2023-02-02T07:43:15;100928.25;;;3.23;100.00
14612;BME280;7392;52.078;11.650;2023-02-02T07:45:44;100932.59;;;3.23;100.00
14612;BME280;7392;52.078;11.650;2023-02-02T07:48:12;100939.63;;;3.24;100.00
14612;BME280;7392;52.078;11.650;2023-02-02T07:50:40;100931.75;;;3.24;100.00
14612;BME280;7392;52.078;11.650;2023-02-02T07:53:08;100934.38;;;3.24;100.00
14612;BME280;7392;52.078;11.650;2023-02-02T07:55:36;100937.94;;;3.26;100.00
14612;BME280;7392;52.078;11.650;2023-02-02T07:58:04;100945.91;;;3.29;100.00
14612;BME280;7392;52.078;11.650;2023-02-02T08:00:33;100949.53;;;3.32;100.00
14612;BME280;7392;52.078;11.650;2023-02-02T08:03:01;100946.13;;;3.35;100.00
14612;BME280;7392;52.078;11.650;2023-02-02T08:05:28;100959.25;;;3.35;100.00
14612;BME280;7392;52.078;11.650;2023-02-02T08:07:57;100954.97;;;3.39;100.00
14612;BME280;7392;52.078;11.650;2023-02-02T08:10:26;100949.81;;;3.42;100.00
14612;BME280;7392;52.078;11.650;2023-02-02T08:12:54;100957.72;;;3.43;100.00
14612;BME280;7392;52.078;11.650;2023-02-02T08:15:21;100952.63;;;3.48;100.00
14612;BME280;7392;52.078;11.650;2023-02-02T08:17:49;100960.66;;;3.52;100.00
14612;BME280;7392;52.078;11.650;2023-02-02T08:20:17;100967.75;;;3.56;100.00
14612;BME280;7392;52.078;11.650;2023-02-02T08:22:46;100958.19;;;3.59;100.00
14612;BME280;7392;52.078;11.650;2023-02-02T08:25:13;100965.31;;;3.63;100.00
14612;BME280;7392;52.078;11.650;2023-02-02T08:27:42;100970.72;;;3.67;100.00
14612;BME280;7392;52.078;11.650;2023-02-02T08:30:11;100973.38;;;3.69;100.00
14612;BME280;7392;52.078;11.650;2023-02-02T08:32:39;100978.72;;;3.72;100.00
14612;BME280;7392;52.078;11.650;2023-02-02T08:35:07;100977.03;;;3.74;100.00
14612;BME280;7392;52.078;11.650;2023-02-02T08:37:34;100974.44;;;3.75;100.00
14612;BME280;7392;52.078;11.650;2023-02-02T08:40:02;100985.06;;;3.79;100.00
14612;BME280;7392;52.078;11.650;2023-02-02T08:42:30;100976.38;;;3.81;100.00
14612;BME280;7392;52.078;11.650;2023-02-02T08:44:59;100983.50;;;3.85;100.00
14612;BME280;7392;52.078;11.650;2023-02-02T08:47:47;100987.09;;;3.89;100.00
14612;BME280;7392;52.078;11.650;2023-02-02T08:50:30;100984.56;;;3.92;100.00
14612;BME280;7392;52.078;11.650;2023-02-02T08:52:58;100980.28;;;3.96;100.00
14612;BME280;7392;52.078;11.650;2023-02-02T08:55:26;100996.19;;;4.00;100.00
14612;BME280;7392;52.078;11.650;2023-02-02T08:57:53;100993.72;;;4.05;100.00
14612;BME280;7392;52.078;11.650;2023-02-02T09:00:22;100999.06;;;4.09;100.00
14612;BME280;7392;52.078;11.650;2023-02-02T09:02:50;100994.00;;;4.16;100.00
14612;BME280;7392;52.078;11.650;2023-02-02T09:05:18;100994.09;;;4.19;100.00
14612;BME280;7392;52.078;11.650;2023-02-02T09:07:45;101006.47;;;4.23;100.00
14612;BME280;7392;52.078;11.650;2023-02-02T09:10:15;101007.34;;;4.23;100.00
14612;BME280;7392;52.078;11.650;2023-02-02T09:12:43;101000.38;;;4.24;100.00
14612;BME280;7392;52.078;11.650;2023-02-02T09:15:10;101016.19;;;4.27;100.00
14612;BME280;7392;52.078;11.650;2023-02-02T09:17:40;101007.47;;;4.28;100.00
14612;BME280;7392;52.078;11.650;2023-02-02T09:20:08;101011.94;;;4.30;100.00
14612;BME280;7392;52.078;11.650;2023-02-02T09:22:36;101016.34;;;4.31;100.00
14612;BME280;7392;52.078;11.650;2023-02-02T09:25:04;101021.69;;;4.35;100.00
14612;BME280;7392;52.078;11.650;2023-02-02T09:27:36;101020.00;;;4.37;100.00
14612;BME280;7392;52.078;11.650;2023-02-02T09:30:04;101023.53;;;4.39;100.00
14612;BME280;7392;52.078;11.650;2023-02-02T09:32:32;101028.84;;;4.40;100.00
14612;BME280;7392;52.078;11.650;2023-02-02T09:35:01;101025.53;;;4.46;100.00
14612;BME280;7392;52.078;11.650;2023-02-02T09:37:29;101030.88;;;4.50;100.00
14612;BME280;7392;52.078;11.650;2023-02-02T09:39:56;101032.72;;;4.53;100.00
14612;BME280;7392;52.078;11.650;2023-02-02T09:42:35;101038.94;;;4.57;100.00
14612;BME280;7392;52.078;11.650;2023-02-02T09:45:12;101037.47;;;4.66;100.00
14612;BME280;7392;52.078;11.650;2023-02-02T09:47:52;101043.00;;;4.77;100.00
14612;BME280;7392;52.078;11.650;2023-02-02T09:50:36;101055.47;;;4.84;100.00
14612;BME280;7392;52.078;11.650;2023-02-02T09:53:12;101061.91;;;4.96;100.00
14612;BME280;7392;52.078;11.650;2023-02-02T09:55:42;101056.78;;;5.02;100.00
14612;BME280;7392;52.078;11.650;2023-02-02T09:58:15;101057.16;;;5.17;100.00
14612;BME280;7392;52.078;11.650;2023-02-02T10:00:50;101068.75;;;5.24;100.00
14612;BME280;7392;52.078;11.650;2023-02-02T10:03:23;101071.34;;;5.22;100.00
14612;BME280;7392;52.078;11.650;2023-02-02T10:06:01;101066.03;;;5.19;99.79
14612;BME280;7392;52.078;11.650;2023-02-02T10:08:33;101066.31;;;5.32;99.97
14612;BME280;7392;52.078;11.650;2023-02-02T10:11:25;101070.06;;;5.43;99.53
14612;BME280;7392;52.078;11.650;2023-02-02T10:13:57;101071.06;;;5.48;98.88
14612;BME280;7392;52.078;11.650;2023-02-02T10:16:26;101083.41;;;5.49;98.52
14612;BME280;7392;52.078;11.650;2023-02-02T10:18:59;101072.78;;;5.46;97.93
14612;BME280;7392;52.078;11.650;2023-02-02T10:21:33;101077.06;;;5.41;97.43
14612;BME280;7392;52.078;11.650;2023-02-02T10:24:15;101078.72;;;5.37;97.37
14612;BME280;7392;52.078;11.650;2023-02-02T10:26:46;101075.97;;;5.33;97.05
14612;BME280;7392;52.078;11.650;2023-02-02T10:29:17;101074.25;;;5.33;97.88
14612;BME280;7392;52.078;11.650;2023-02-02T10:31:57;101088.34;;;5.35;98.28
14612;BME280;7392;52.078;11.650;2023-02-02T10:34:32;101081.25;;;5.31;97.91
14612;BME280;7392;52.078;11.650;2023-02-02T10:37:23;101083.78;;;5.28;98.42
14612;BME280;7392;52.078;11.650;2023-02-02T10:40:04;101081.16;;;5.28;99.43
14612;BME280;7392;52.078;11.650;2023-02-02T10:42:51;101092.75;;;5.35;100.00
14612;BME280;7392;52.078;11.650;2023-02-02T10:45:38;101090.16;;;5.36;98.95
14612;BME280;7392;52.078;11.650;2023-02-02T10:48:12;101081.78;;;5.54;98.98
14612;BME280;7392;52.078;11.650;2023-02-02T10:50:43;101090.25;;;5.79;98.52
14612;BME280;7392;52.078;11.650;2023-02-02T10:53:15;101094.31;;;6.03;97.54
14612;BME280;7392;52.078;11.650;2023-02-02T10:55:48;101088.56;;;6.21;96.58
14612;BME280;7392;52.078;11.650;2023-02-02T10:58:23;101091.50;;;6.34;94.67
14612;BME280;7392;52.078;11.650;2023-02-02T11:00:53;101097.03;;;6.48;94.56
14612;BME280;7392;52.078;11.650;2023-02-02T11:03:26;101107.03;;;6.63;93.44
14612;BME280;7392;52.078;11.650;2023-02-02T11:05:55;101096.72;;;6.77;93.12
14612;BME280;7392;52.078;11.650;2023-02-02T11:08:44;101103.09;;;6.90;92.50
14612;BME280;7392;52.078;11.650;2023-02-02T11:11:17;101112.81;;;6.91;90.50
14612;BME280;7392;52.078;11.650;2023-02-02T11:13:49;101110.34;;;7.00;90.18
14612;BME280;7392;52.078;11.650;2023-02-02T11:16:22;101108.72;;;7.08;89.46
14612;BME280;7392;52.078;11.650;2023-02-02T11:19:21;101114.22;;;7.21;88.61
14612;BME280;7392;52.078;11.650;2023-02-02T11:21:51;101113.56;;;7.31;88.42
14612;BME280;7392;52.078;11.650;2023-02-02T11:24:25;101120.78;;;7.44;88.29
14612;BME280;7392;52.078;11.650;2023-02-02T11:26:55;101129.78;;;7.54;88.21
14612;BME280;7392;52.078;11.650;2023-02-02T11:29:27;101129.75;;;7.53;87.47
14612;BME280;7392;52.078;11.650;2023-02-02T11:31:56;101132.44;;;7.56;86.49
14612;BME280;7392;52.078;11.650;2023-02-02T11:34:25;101137.66;;;7.51;85.35
14612;BME280;7392;52.078;11.650;2023-02-02T11:36:59;101139.38;;;7.49;84.87
14612;BME280;7392;52.078;11.650;2023-02-02T11:39:29;101135.91;;;7.52;85.50
14612;BME280;7392;52.078;11.650;2023-02-02T11:42:00;101133.09;;;7.42;84.04
14612;BME280;7392;52.078;11.650;2023-02-02T11:44:28;101144.44;;;7.35;83.96
14612;BME280;7392;52.078;11.650;2023-02-02T11:47:00;101138.91;;;7.21;81.48
14612;BME280;7392;52.078;11.650;2023-02-02T11:49:37;101139.56;;;7.08;81.61
14612;BME280;7392;52.078;11.650;2023-02-02T11:52:15;101152.44;;;6.91;81.51
14612;BME280;7392;52.078;11.650;2023-02-02T11:54:47;101152.44;;;6.91;82.96
14612;BME280;7392;52.078;11.650;2023-02-02T11:57:18;101146.63;;;7.09;84.04
14612;BME280;7392;52.078;11.650;2023-02-02T11:59:48;101139.81;;;7.23;82.91
14612;BME280;7392;52.078;11.650;2023-02-02T12:02:23;101135.56;;;7.32;81.23
14612;BME280;7392;52.078;11.650;2023-02-02T12:04:52;101147.03;;;7.34;80.83
14612;BME280;7392;52.078;11.650;2023-02-02T12:07:24;101151.38;;;7.28;80.39
14612;BME280;7392;52.078;11.650;2023-02-02T12:09:58;101149.44;;;7.20;80.32
14612;BME280;7392;52.078;11.650;2023-02-02T12:12:36;101156.38;;;7.13;79.27
14612;BME280;7392;52.078;11.650;2023-02-02T12:15:20;101151.88;;;7.07;78.59
14612;BME280;7392;52.078;11.650;2023-02-02T12:17:54;101152.63;;;7.02;79.20
14612;BME280;7392;52.078;11.650;2023-02-02T12:20:30;101149.88;;;6.96;78.16
14612;BME280;7392;52.078;11.650;2023-02-02T12:23:26;101152.31;;;6.85;78.00
14612;BME280;7392;52.078;11.650;2023-02-02T12:26:24;101157.59;;;6.85;79.79
14612;BME280;7392;52.078;11.650;2023-02-02T12:29:09;101170.78;;;6.83;80.17
14612;BME280;7392;52.078;11.650;2023-02-02T12:32:10;101159.38;;;6.86;81.10
14612;BME280;7392;52.078;11.650;2023-02-02T12:34:51;101167.25;;;6.84;80.29
14612;BME280;7392;52.078;11.650;2023-02-02T12:37:38;101164.66;;;6.86;81.21
14612;BME280;7392;52.078;11.650;2023-02-02T12:40:21;101169.03;;;6.84;81.70
14612;BME280;7392;52.078;11.650;2023-02-02T12:43:03;101161.91;;;6.81;82.38
14612;BME280;7392;52.078;11.650;2023-02-02T12:45:46;101176.84;;;6.79;82.71
14612;BME280;7392;52.078;11.650;2023-02-02T12:48:30;101181.22;;;6.77;83.31
14612;BME280;7392;52.078;11.650;2023-02-02T12:51:13;101177.69;;;6.77;83.99
14612;BME280;7392;52.078;11.650;2023-02-02T12:54:04;101173.28;;;6.77;84.59
14612;BME280;7392;52.078;11.650;2023-02-02T12:57:05;101180.22;;;6.72;84.40
14612;BME280;7392;52.078;11.650;2023-02-02T12:59:54;101185.50;;;6.72;84.69
14612;BME280;7392;52.078;11.650;2023-02-02T13:02:28;101183.69;;;6.69;84.75
14612;BME280;7392;52.078;11.650;2023-02-02T13:05:16;101181.03;;;6.69;85.22
14612;BME280;7392;52.078;11.650;2023-02-02T13:07:51;101188.03;;;6.67;85.04
14612;BME280;7392;52.078;11.650;2023-02-02T13:10:26;101199.47;;;6.66;84.66
14612;BME280;7392;52.078;11.650;2023-02-02T13:12:58;101210.00;;;6.65;84.24
14612;BME280;7392;52.078;11.650;2023-02-02T13:15:33;101206.44;;;6.63;83.56
14612;BME280;7392;52.078;11.650;2023-02-02T13:18:05;101225.72;;;6.60;83.08
14612;BME280;7392;52.078;11.650;2023-02-02T13:20:36;101230.09;;;6.58;83.28